Overview Statistics Trail Chart Weather Telemetry Raw packets
 

This is the latest recevied packets stored in our database for station/object DC8RAI-10. If no packets are shown the sender has not sent any packets the latest 24 hours.

If you compare the raw packets with similar data from other websites it may differ (especially the path), the reason is that we are not collecting packets from the same APRS-IS servers. Each APRS-IS server performes duplicate filtering, and which packet that is considered to be a duplicate may differ depending on which APRS-IS server you receive your data from.

<< 1 2 3 4 >>

1788564246: DC8RAI-10>APRSGW,TCPIP*,qAR,DC8RAI-10:T#673,964.6,35.5,25.0,1019.6,0.0,00000000

1788564246: DC8RAI-10>APRSGW,TCPIP*,qAR,DC8RAI-10:!4751.50N/01206.68E-Meshcom Node Rosenheim#DC8RAI-10/B=100/A=001640

1788562431: DC8RAI-10>APRSGW,TCPIP*,qAR,DC8RAI-10:T#672,964.5,37.4,21.7,1019.1,0.0,00000000

1788562431: DC8RAI-10>APRSGW,TCPIP*,qAR,DC8RAI-10:!4751.50N/01206.68E-Meshcom Node Rosenheim#DC8RAI-10/B=100/A=001640

1788560616: DC8RAI-10>APRSGW,TCPIP*,qAR,DC8RAI-10::DC8RAI-10:PARM.Press,Temp.in,Hum,QNH,Temp.out,track,-,-,-,-,-,-,-

1788560616: DC8RAI-10>APRSGW,TCPIP*,qAR,DC8RAI-10:T#671,964.3,39.2,18.9,1018.6,0.0,00000000

1788560616: DC8RAI-10>APRSGW,TCPIP*,qAR,DC8RAI-10::DC8RAI-10:UNIT.hPa,C deg,%,hPa,C deg,Y/N,O/N,O/N,O/N,O/N,O/N,O/N,O/N

1788560616: DC8RAI-10>APRSGW,TCPIP*,qAR,DC8RAI-10::DC8RAI-10:EQNS.0,1,0,0,1,0,0,1,0,0,1,0,0,1,0

1788560616: DC8RAI-10>APRSGW,TCPIP*,qAR,DC8RAI-10:!4751.50N/01206.68E-Meshcom Node Rosenheim#DC8RAI-10/B=100/A=001640

1788558801: DC8RAI-10>APRSGW,TCPIP*,qAR,DC8RAI-10:!4751.50N/01206.68E-Meshcom Node Rosenheim#DC8RAI-10/B=100/A=001640

1788558801: DC8RAI-10>APRSGW,TCPIP*,qAR,DC8RAI-10:T#670,964.1,36.3,21.4,1018.9,0.0,00000000

1788556986: DC8RAI-10>APRSGW,TCPIP*,qAR,DC8RAI-10:T#669,963.9,35.5,22.2,1018.8,0.0,00000000

1788556986: DC8RAI-10>APRSGW,TCPIP*,qAR,DC8RAI-10:!4751.50N/01206.68E-Meshcom Node Rosenheim#DC8RAI-10/B=100/A=001640

1788555171: DC8RAI-10>APRSGW,TCPIP*,qAR,DC8RAI-10:T#668,963.8,38.0,19.6,1018.3,0.0,00000000

1788555171: DC8RAI-10>APRSGW,TCPIP*,qAR,DC8RAI-10:!4751.50N/01206.68E-Meshcom Node Rosenheim#DC8RAI-10/B=100/A=001640

1788553356: DC8RAI-10>APRSGW,TCPIP*,qAR,DC8RAI-10:T#667,963.7,35.5,22.8,1018.7,0.0,00000000

1788553356: DC8RAI-10>APRSGW,TCPIP*,qAR,DC8RAI-10:!4751.50N/01206.68E-Meshcom Node Rosenheim#DC8RAI-10/B=100/A=001640

1788551541: DC8RAI-10>APRSGW,TCPIP*,qAR,DC8RAI-10:T#666,963.6,38.2,20.7,1018.0,0.0,00000000

1788551541: DC8RAI-10>APRSGW,TCPIP*,qAR,DC8RAI-10:!4751.50N/01206.68E-Meshcom Node Rosenheim#DC8RAI-10/B=100/A=001640

1788549726: DC8RAI-10>APRSGW,TCPIP*,qAR,DC8RAI-10:T#665,963.5,39.0,19.8,1017.8,0.0,00000000

1788549726: DC8RAI-10>APRSGW,TCPIP*,qAR,DC8RAI-10:!4751.50N/01206.68E-Meshcom Node Rosenheim#DC8RAI-10/B=100/A=001640

1788547911: DC8RAI-10>APRSGW,TCPIP*,qAR,DC8RAI-10:T#664,963.3,39.8,17.9,1017.5,0.0,00000000

1788547911: DC8RAI-10>APRSGW,TCPIP*,qAR,DC8RAI-10:!4751.50N/01206.68E-Meshcom Node Rosenheim#DC8RAI-10/B=100/A=001640

1788546096: DC8RAI-10>APRSGW,TCPIP*,qAR,DC8RAI-10:T#663,963.0,40.5,16.1,1017.0,0.0,00000000

1788546096: DC8RAI-10>APRSGW,TCPIP*,qAR,DC8RAI-10:!4751.50N/01206.68E-Meshcom Node Rosenheim#DC8RAI-10/B=100/A=001640